sensor_id;sensor_type;location;lat;lon;timestamp;P1;durP1;ratioP1;P2;durP2;ratioP2
22007;SDS011;11168;56.976;24.168;2023-02-18T00:01:00;19.63;;;12.45;;
22007;SDS011;11168;56.976;24.168;2023-02-18T00:03:28;19.98;;;12.82;;
22007;SDS011;11168;56.976;24.168;2023-02-18T00:05:55;25.60;;;14.23;;
22007;SDS011;11168;56.976;24.168;2023-02-18T00:08:22;21.50;;;13.35;;
22007;SDS011;11168;56.976;24.168;2023-02-18T00:10:49;23.52;;;13.30;;
22007;SDS011;11168;56.976;24.168;2023-02-18T00:13:16;21.17;;;13.50;;
22007;SDS011;11168;56.976;24.168;2023-02-18T00:15:43;25.15;;;13.73;;
22007;SDS011;11168;56.976;24.168;2023-02-18T00:18:10;26.77;;;14.40;;
22007;SDS011;11168;56.976;24.168;2023-02-18T00:20:38;25.25;;;15.00;;
22007;SDS011;11168;56.976;24.168;2023-02-18T00:23:05;22.73;;;14.25;;
22007;SDS011;11168;56.976;24.168;2023-02-18T00:25:32;27.27;;;14.63;;
22007;SDS011;11168;56.976;24.168;2023-02-18T00:27:59;25.70;;;14.43;;
22007;SDS011;11168;56.976;24.168;2023-02-18T00:30:25;23.48;;;13.10;;
22007;SDS011;11168;56.976;24.168;2023-02-18T00:32:53;24.08;;;12.90;;
22007;SDS011;11168;56.976;24.168;2023-02-18T00:35:20;22.65;;;12.52;;
22007;SDS011;11168;56.976;24.168;2023-02-18T00:37:49;22.15;;;13.38;;
22007;SDS011;11168;56.976;24.168;2023-02-18T00:40:18;22.05;;;12.48;;
22007;SDS011;11168;56.976;24.168;2023-02-18T00:42:46;25.27;;;12.13;;
22007;SDS011;11168;56.976;24.168;2023-02-18T00:45:13;22.30;;;12.38;;
22007;SDS011;11168;56.976;24.168;2023-02-18T00:47:40;24.42;;;11.73;;
22007;SDS011;11168;56.976;24.168;2023-02-18T00:50:07;20.30;;;9.43;;
22007;SDS011;11168;56.976;24.168;2023-02-18T00:52:35;18.25;;;9.05;;
22007;SDS011;11168;56.976;24.168;2023-02-18T00:55:02;15.88;;;8.50;;
22007;SDS011;11168;56.976;24.168;2023-02-18T00:57:30;16.23;;;7.10;;
22007;SDS011;11168;56.976;24.168;2023-02-18T00:59:57;13.57;;;7.20;;
22007;SDS011;11168;56.976;24.168;2023-02-18T01:02:23;16.30;;;7.80;;
22007;SDS011;11168;56.976;24.168;2023-02-18T01:04:50;14.40;;;7.03;;
22007;SDS011;11168;56.976;24.168;2023-02-18T01:07:17;12.55;;;6.10;;
22007;SDS011;11168;56.976;24.168;2023-02-18T01:09:44;13.75;;;5.35;;
22007;SDS011;11168;56.976;24.168;2023-02-18T01:12:11;14.60;;;5.43;;
22007;SDS011;11168;56.976;24.168;2023-02-18T01:14:38;15.73;;;4.93;;
22007;SDS011;11168;56.976;24.168;2023-02-18T01:17:05;13.82;;;5.10;;
22007;SDS011;11168;56.976;24.168;2023-02-18T01:19:32;15.63;;;6.32;;
22007;SDS011;11168;56.976;24.168;2023-02-18T01:21:59;18.75;;;6.70;;
22007;SDS011;11168;56.976;24.168;2023-02-18T01:24:26;15.75;;;6.78;;
22007;SDS011;11168;56.976;24.168;2023-02-18T01:26:53;14.68;;;4.93;;
22007;SDS011;11168;56.976;24.168;2023-02-18T01:29:20;12.45;;;5.35;;
22007;SDS011;11168;56.976;24.168;2023-02-18T01:31:47;14.35;;;5.70;;
22007;SDS011;11168;56.976;24.168;2023-02-18T01:34:16;11.88;;;4.70;;
22007;SDS011;11168;56.976;24.168;2023-02-18T01:36:43;9.65;;;3.92;;
22007;SDS011;11168;56.976;24.168;2023-02-18T01:39:10;13.52;;;3.88;;
22007;SDS011;11168;56.976;24.168;2023-02-18T01:41:37;12.35;;;3.67;;
22007;SDS011;11168;56.976;24.168;2023-02-18T01:46:38;17.52;;;3.60;;
22007;SDS011;11168;56.976;24.168;2023-02-18T01:49:05;10.57;;;2.97;;
22007;SDS011;11168;56.976;24.168;2023-02-18T01:51:34;11.10;;;2.80;;
22007;SDS011;11168;56.976;24.168;2023-02-18T01:57:04;11.07;;;2.33;;
22007;SDS011;11168;56.976;24.168;2023-02-18T01:59:53;10.63;;;2.45;;
22007;SDS011;11168;56.976;24.168;2023-02-18T02:02:41;10.98;;;2.33;;
22007;SDS011;11168;56.976;24.168;2023-02-18T02:05:11;10.93;;;2.28;;
22007;SDS011;11168;56.976;24.168;2023-02-18T02:07:39;12.60;;;2.13;;
22007;SDS011;11168;56.976;24.168;2023-02-18T02:10:08;14.75;;;2.28;;
22007;SDS011;11168;56.976;24.168;2023-02-18T02:34:27;6.70;;;1.40;;
22007;SDS011;11168;56.976;24.168;2023-02-18T02:46:05;6.28;;;1.10;;
22007;SDS011;11168;56.976;24.168;2023-02-18T02:48:53;13.82;;;1.95;;
22007;SDS011;11168;56.976;24.168;2023-02-18T02:56:47;9.57;;;1.73;;
22007;SDS011;11168;56.976;24.168;2023-02-18T02:59:16;8.18;;;1.27;;
22007;SDS011;11168;56.976;24.168;2023-02-18T03:16:35;6.60;;;1.13;;
22007;SDS011;11168;56.976;24.168;2023-02-18T03:19:13;4.85;;;1.25;;
22007;SDS011;11168;56.976;24.168;2023-02-18T03:24:37;5.05;;;0.88;;
22007;SDS011;11168;56.976;24.168;2023-02-18T03:29:39;4.45;;;0.82;;
22007;SDS011;11168;56.976;24.168;2023-02-18T03:32:10;4.20;;;1.15;;
22007;SDS011;11168;56.976;24.168;2023-02-18T03:34:43;8.85;;;1.42;;
22007;SDS011;11168;56.976;24.168;2023-02-18T03:37:16;7.60;;;1.13;;
22007;SDS011;11168;56.976;24.168;2023-02-18T03:39:45;6.10;;;1.20;;
22007;SDS011;11168;56.976;24.168;2023-02-18T03:42:18;5.25;;;1.05;;
22007;SDS011;11168;56.976;24.168;2023-02-18T03:44:45;6.28;;;1.00;;
22007;SDS011;11168;56.976;24.168;2023-02-18T03:47:12;10.80;;;1.15;;
22007;SDS011;11168;56.976;24.168;2023-02-18T03:49:39;6.43;;;1.10;;
22007;SDS011;11168;56.976;24.168;2023-02-18T03:52:06;7.15;;;1.50;;
22007;SDS011;11168;56.976;24.168;2023-02-18T03:54:32;6.82;;;1.00;;
22007;SDS011;11168;56.976;24.168;2023-02-18T03:57:01;5.93;;;1.08;;
22007;SDS011;11168;56.976;24.168;2023-02-18T03:59:28;6.20;;;1.00;;
22007;SDS011;11168;56.976;24.168;2023-02-18T04:01:55;6.60;;;1.20;;
22007;SDS011;11168;56.976;24.168;2023-02-18T04:04:22;4.93;;;1.00;;
22007;SDS011;11168;56.976;24.168;2023-02-18T04:06:49;4.25;;;0.95;;
22007;SDS011;11168;56.976;24.168;2023-02-18T04:09:16;5.55;;;1.00;;
22007;SDS011;11168;56.976;24.168;2023-02-18T04:11:43;3.13;;;0.85;;
22007;SDS011;11168;56.976;24.168;2023-02-18T04:14:13;7.50;;;1.15;;
22007;SDS011;11168;56.976;24.168;2023-02-18T04:16:40;2.45;;;0.65;;
22007;SDS011;11168;56.976;24.168;2023-02-18T04:19:07;5.25;;;0.90;;
22007;SDS011;11168;56.976;24.168;2023-02-18T04:21:34;4.60;;;0.73;;
22007;SDS011;11168;56.976;24.168;2023-02-18T04:24:01;4.63;;;1.13;;
22007;SDS011;11168;56.976;24.168;2023-02-18T04:26:28;4.03;;;0.93;;
22007;SDS011;11168;56.976;24.168;2023-02-18T04:28:55;4.63;;;0.95;;
22007;SDS011;11168;56.976;24.168;2023-02-18T04:31:22;3.97;;;0.70;;
22007;SDS011;11168;56.976;24.168;2023-02-18T04:33:50;2.33;;;0.77;;
22007;SDS011;11168;56.976;24.168;2023-02-18T04:36:17;3.22;;;0.75;;
22007;SDS011;11168;56.976;24.168;2023-02-18T04:38:44;2.30;;;0.80;;
22007;SDS011;11168;56.976;24.168;2023-02-18T04:41:11;2.28;;;0.80;;
22007;SDS011;11168;56.976;24.168;2023-02-18T04:43:38;2.92;;;0.80;;
22007;SDS011;11168;56.976;24.168;2023-02-18T04:46:04;4.30;;;0.73;;
22007;SDS011;11168;56.976;24.168;2023-02-18T04:48:32;4.28;;;0.85;;
22007;SDS011;11168;56.976;24.168;2023-02-18T04:51:00;3.88;;;0.90;;
22007;SDS011;11168;56.976;24.168;2023-02-18T04:53:27;3.88;;;1.58;;
22007;SDS011;11168;56.976;24.168;2023-02-18T04:55:54;5.68;;;1.27;;
22007;SDS011;11168;56.976;24.168;2023-02-18T04:58:21;3.53;;;0.82;;
22007;SDS011;11168;56.976;24.168;2023-02-18T05:00:48;2.38;;;0.80;;
22007;SDS011;11168;56.976;24.168;2023-02-18T05:03:15;6.43;;;1.13;;
22007;SDS011;11168;56.976;24.168;2023-02-18T05:05:42;3.08;;;0.95;;
22007;SDS011;11168;56.976;24.168;2023-02-18T05:08:09;3.03;;;1.20;;
22007;SDS011;11168;56.976;24.168;2023-02-18T05:10:37;5.07;;;1.05;;
22007;SDS011;11168;56.976;24.168;2023-02-18T05:13:04;2.47;;;0.80;;
22007;SDS011;11168;56.976;24.168;2023-02-18T05:15:31;4.75;;;1.42;;
22007;SDS011;11168;56.976;24.168;2023-02-18T05:17:58;5.22;;;1.00;;
22007;SDS011;11168;56.976;24.168;2023-02-18T05:20:25;3.03;;;0.80;;
22007;SDS011;11168;56.976;24.168;2023-02-18T05:22:52;3.70;;;1.27;;
22007;SDS011;11168;56.976;24.168;2023-02-18T05:25:19;4.10;;;1.15;;
22007;SDS011;11168;56.976;24.168;2023-02-18T05:27:47;4.78;;;0.98;;
22007;SDS011;11168;56.976;24.168;2023-02-18T05:30:13;3.70;;;1.50;;
22007;SDS011;11168;56.976;24.168;2023-02-18T05:32:40;6.03;;;1.35;;
22007;SDS011;11168;56.976;24.168;2023-02-18T05:35:08;2.90;;;1.00;;
22007;SDS011;11168;56.976;24.168;2023-02-18T05:37:35;4.30;;;1.30;;
22007;SDS011;11168;56.976;24.168;2023-02-18T05:40:02;3.40;;;1.30;;
22007;SDS011;11168;56.976;24.168;2023-02-18T05:42:30;2.83;;;1.20;;
22007;SDS011;11168;56.976;24.168;2023-02-18T05:44:58;3.38;;;1.40;;
22007;SDS011;11168;56.976;24.168;2023-02-18T05:47:25;2.65;;;1.15;;
22007;SDS011;11168;56.976;24.168;2023-02-18T05:49:52;4.95;;;2.00;;
22007;SDS011;11168;56.976;24.168;2023-02-18T05:52:21;4.75;;;1.85;;
22007;SDS011;11168;56.976;24.168;2023-02-18T05:54:48;5.47;;;2.25;;
22007;SDS011;11168;56.976;24.168;2023-02-18T05:57:15;6.32;;;2.03;;
22007;SDS011;11168;56.976;24.168;2023-02-18T05:59:42;5.60;;;2.28;;
22007;SDS011;11168;56.976;24.168;2023-02-18T06:02:09;6.35;;;2.40;;
22007;SDS011;11168;56.976;24.168;2023-02-18T06:04:36;6.93;;;2.20;;
22007;SDS011;11168;56.976;24.168;2023-02-18T06:07:02;6.85;;;2.40;;
22007;SDS011;11168;56.976;24.168;2023-02-18T06:09:29;5.03;;;2.60;;
22007;SDS011;11168;56.976;24.168;2023-02-18T06:11:57;7.18;;;2.70;;
22007;SDS011;11168;56.976;24.168;2023-02-18T06:14:23;5.50;;;2.95;;
22007;SDS011;11168;56.976;24.168;2023-02-18T06:16:50;5.75;;;2.38;;
22007;SDS011;11168;56.976;24.168;2023-02-18T06:19:17;7.13;;;2.97;;
22007;SDS011;11168;56.976;24.168;2023-02-18T06:21:47;5.55;;;2.20;;
22007;SDS011;11168;56.976;24.168;2023-02-18T06:24:14;3.63;;;2.00;;
22007;SDS011;11168;56.976;24.168;2023-02-18T06:26:41;5.07;;;2.10;;
22007;SDS011;11168;56.976;24.168;2023-02-18T06:29:08;3.45;;;1.67;;
22007;SDS011;11168;56.976;24.168;2023-02-18T06:31:35;4.28;;;1.52;;
22007;SDS011;11168;56.976;24.168;2023-02-18T06:34:02;3.25;;;1.30;;
22007;SDS011;11168;56.976;24.168;2023-02-18T06:36:29;3.00;;;1.10;;
22007;SDS011;11168;56.976;24.168;2023-02-18T06:38:56;4.50;;;1.10;;
22007;SDS011;11168;56.976;24.168;2023-02-18T06:41:24;3.63;;;1.58;;
22007;SDS011;11168;56.976;24.168;2023-02-18T06:43:51;5.07;;;1.40;;
22007;SDS011;11168;56.976;24.168;2023-02-18T06:46:18;3.53;;;1.70;;
22007;SDS011;11168;56.976;24.168;2023-02-18T06:48:45;1.80;;;1.15;;
22007;SDS011;11168;56.976;24.168;2023-02-18T06:51:12;3.70;;;1.45;;
22007;SDS011;11168;56.976;24.168;2023-02-18T06:53:39;2.42;;;1.50;;
22007;SDS011;11168;56.976;24.168;2023-02-18T06:56:07;3.78;;;1.50;;
22007;SDS011;11168;56.976;24.168;2023-02-18T06:58:34;2.95;;;1.92;;
22007;SDS011;11168;56.976;24.168;2023-02-18T07:01:03;3.95;;;1.33;;
22007;SDS011;11168;56.976;24.168;2023-02-18T07:03:30;2.72;;;1.75;;
22007;SDS011;11168;56.976;24.168;2023-02-18T07:05:57;2.40;;;1.50;;
22007;SDS011;11168;56.976;24.168;2023-02-18T07:08:25;2.35;;;1.58;;
22007;SDS011;11168;56.976;24.168;2023-02-18T07:10:52;2.03;;;1.13;;
22007;SDS011;11168;56.976;24.168;2023-02-18T07:13:19;1.90;;;1.00;;
22007;SDS011;11168;56.976;24.168;2023-02-18T07:15:46;1.25;;;0.68;;
22007;SDS011;11168;56.976;24.168;2023-02-18T07:18:13;1.58;;;0.93;;
22007;SDS011;11168;56.976;24.168;2023-02-18T07:20:40;3.15;;;1.05;;
22007;SDS011;11168;56.976;24.168;2023-02-18T07:23:07;2.03;;;1.00;;
22007;SDS011;11168;56.976;24.168;2023-02-18T07:25:34;1.52;;;0.93;;
22007;SDS011;11168;56.976;24.168;2023-02-18T07:28:01;4.45;;;1.40;;
22007;SDS011;11168;56.976;24.168;2023-02-18T07:33:21;4.18;;;1.90;;
22007;SDS011;11168;56.976;24.168;2023-02-18T07:35:52;3.92;;;1.88;;
22007;SDS011;11168;56.976;24.168;2023-02-18T07:38:22;2.55;;;1.65;;
22007;SDS011;11168;56.976;24.168;2023-02-18T07:40:50;5.15;;;1.60;;
22007;SDS011;11168;56.976;24.168;2023-02-18T07:43:17;2.95;;;1.58;;
22007;SDS011;11168;56.976;24.168;2023-02-18T07:45:44;2.22;;;1.00;;
22007;SDS011;11168;56.976;24.168;2023-02-18T07:48:12;2.88;;;1.25;;
22007;SDS011;11168;56.976;24.168;2023-02-18T07:50:39;2.22;;;1.58;;
22007;SDS011;11168;56.976;24.168;2023-02-18T07:53:08;4.40;;;1.60;;
22007;SDS011;11168;56.976;24.168;2023-02-18T07:55:36;2.35;;;1.40;;
22007;SDS011;11168;56.976;24.168;2023-02-18T07:58:26;4.78;;;1.70;;
22007;SDS011;11168;56.976;24.168;2023-02-18T08:00:56;3.00;;;1.77;;
22007;SDS011;11168;56.976;24.168;2023-02-18T08:03:25;3.00;;;1.25;;
22007;SDS011;11168;56.976;24.168;2023-02-18T08:05:53;2.33;;;1.70;;
22007;SDS011;11168;56.976;24.168;2023-02-18T08:08:23;3.78;;;1.90;;
22007;SDS011;11168;56.976;24.168;2023-02-18T08:10:52;5.30;;;2.42;;
22007;SDS011;11168;56.976;24.168;2023-02-18T08:13:21;5.25;;;2.25;;
22007;SDS011;11168;56.976;24.168;2023-02-18T08:15:48;1.73;;;1.40;;
22007;SDS011;11168;56.976;24.168;2023-02-18T08:18:18;3.17;;;1.40;;
22007;SDS011;11168;56.976;24.168;2023-02-18T08:20:46;3.13;;;1.55;;
22007;SDS011;11168;56.976;24.168;2023-02-18T08:23:14;4.38;;;1.27;;
22007;SDS011;11168;56.976;24.168;2023-02-18T08:25:45;3.10;;;1.13;;
22007;SDS011;11168;56.976;24.168;2023-02-18T08:28:21;1.23;;;1.05;;
22007;SDS011;11168;56.976;24.168;2023-02-18T08:30:50;3.22;;;1.05;;
22007;SDS011;11168;56.976;24.168;2023-02-18T08:33:18;2.53;;;1.20;;
22007;SDS011;11168;56.976;24.168;2023-02-18T08:35:46;1.70;;;1.08;;
22007;SDS011;11168;56.976;24.168;2023-02-18T08:38:14;2.67;;;1.35;;
22007;SDS011;11168;56.976;24.168;2023-02-18T08:40:41;2.17;;;1.10;;
22007;SDS011;11168;56.976;24.168;2023-02-18T08:43:08;1.55;;;1.05;;
22007;SDS011;11168;56.976;24.168;2023-02-18T08:45:36;3.67;;;1.08;;
22007;SDS011;11168;56.976;24.168;2023-02-18T08:48:04;1.98;;;1.30;;
22007;SDS011;11168;56.976;24.168;2023-02-18T08:50:45;1.95;;;1.35;;
22007;SDS011;11168;56.976;24.168;2023-02-18T08:53:16;2.45;;;1.40;;
22007;SDS011;11168;56.976;24.168;2023-02-18T08:55:43;2.95;;;1.55;;
22007;SDS011;11168;56.976;24.168;2023-02-18T08:58:10;4.35;;;2.22;;
22007;SDS011;11168;56.976;24.168;2023-02-18T09:00:38;4.07;;;2.38;;
22007;SDS011;11168;56.976;24.168;2023-02-18T09:03:06;5.28;;;2.20;;
22007;SDS011;11168;56.976;24.168;2023-02-18T09:05:33;3.08;;;2.10;;
22007;SDS011;11168;56.976;24.168;2023-02-18T09:08:02;3.15;;;2.33;;
22007;SDS011;11168;56.976;24.168;2023-02-18T09:10:29;2.67;;;1.45;;
22007;SDS011;11168;56.976;24.168;2023-02-18T09:12:59;0.60;;;0.60;;
22007;SDS011;11168;56.976;24.168;2023-02-18T09:15:25;2.20;;;0.50;;
22007;SDS011;11168;56.976;24.168;2023-02-18T09:17:52;2.20;;;1.33;;
22007;SDS011;11168;56.976;24.168;2023-02-18T09:20:19;2.33;;;1.10;;
22007;SDS011;11168;56.976;24.168;2023-02-18T09:22:46;3.58;;;1.02;;
22007;SDS011;11168;56.976;24.168;2023-02-18T09:25:13;0.60;;;0.47;;
22007;SDS011;11168;56.976;24.168;2023-02-18T09:27:40;1.02;;;0.40;;
22007;SDS011;11168;56.976;24.168;2023-02-18T09:30:08;1.00;;;0.50;;
22007;SDS011;11168;56.976;24.168;2023-02-18T09:32:36;1.48;;;0.60;;
22007;SDS011;11168;56.976;24.168;2023-02-18T09:35:03;3.35;;;0.90;;
22007;SDS011;11168;56.976;24.168;2023-02-18T09:37:31;2.42;;;0.57;;
22007;SDS011;11168;56.976;24.168;2023-02-18T09:39:58;1.75;;;1.20;;
22007;SDS011;11168;56.976;24.168;2023-02-18T09:42:30;3.05;;;1.30;;
22007;SDS011;11168;56.976;24.168;2023-02-18T09:45:00;4.28;;;1.70;;
22007;SDS011;11168;56.976;24.168;2023-02-18T09:50:06;2.85;;;1.10;;
22007;SDS011;11168;56.976;24.168;2023-02-18T09:52:54;2.47;;;1.07;;
22007;SDS011;11168;56.976;24.168;2023-02-18T09:55:27;6.85;;;2.80;;
22007;SDS011;11168;56.976;24.168;2023-02-18T09:58:13;6.88;;;2.83;;
22007;SDS011;11168;56.976;24.168;2023-02-18T10:00:45;4.70;;;2.45;;
22007;SDS011;11168;56.976;24.168;2023-02-18T10:03:19;2.00;;;1.30;;
22007;SDS011;11168;56.976;24.168;2023-02-18T10:06:02;2.40;;;1.20;;
22007;SDS011;11168;56.976;24.168;2023-02-18T10:08:45;1.45;;;1.00;;
22007;SDS011;11168;56.976;24.168;2023-02-18T10:11:34;1.63;;;1.17;;
22007;SDS011;11168;56.976;24.168;2023-02-18T10:14:08;2.22;;;1.50;;
22007;SDS011;11168;56.976;24.168;2023-02-18T10:16:41;2.45;;;1.40;;
22007;SDS011;11168;56.976;24.168;2023-02-18T10:21:53;7.35;;;3.67;;
22007;SDS011;11168;56.976;24.168;2023-02-18T10:24:29;12.50;;;5.30;;
22007;SDS011;11168;56.976;24.168;2023-02-18T10:27:08;15.18;;;5.43;;
22007;SDS011;11168;56.976;24.168;2023-02-18T10:29:37;12.27;;;5.95;;
22007;SDS011;11168;56.976;24.168;2023-02-18T10:32:23;8.32;;;3.67;;
22007;SDS011;11168;56.976;24.168;2023-02-18T10:40:58;3.78;;;1.42;;
22007;SDS011;11168;56.976;24.168;2023-02-18T10:43:42;3.08;;;1.30;;
22007;SDS011;11168;56.976;24.168;2023-02-18T10:49:19;2.22;;;1.30;;
22007;SDS011;11168;56.976;24.168;2023-02-18T10:52:12;2.05;;;1.10;;
22007;SDS011;11168;56.976;24.168;2023-02-18T10:57:19;3.85;;;1.13;;
22007;SDS011;11168;56.976;24.168;2023-02-18T10:59:55;2.95;;;1.40;;
22007;SDS011;11168;56.976;24.168;2023-02-18T11:02:40;3.30;;;1.95;;
22007;SDS011;11168;56.976;24.168;2023-02-18T11:05:42;2.08;;;1.65;;
22007;SDS011;11168;56.976;24.168;2023-02-18T11:08:02;10.50;;;3.28;;
22007;SDS011;11168;56.976;24.168;2023-02-18T11:10:35;13.27;;;4.70;;
22007;SDS011;11168;56.976;24.168;2023-02-18T11:13:06;8.75;;;3.50;;
22007;SDS011;11168;56.976;24.168;2023-02-18T11:15:35;6.10;;;3.40;;
22007;SDS011;11168;56.976;24.168;2023-02-18T11:18:13;15.13;;;9.02;;
22007;SDS011;11168;56.976;24.168;2023-02-18T11:20:56;3.38;;;0.80;;
22007;SDS011;11168;56.976;24.168;2023-02-18T11:23:24;0.80;;;0.80;;
22007;SDS011;11168;56.976;24.168;2023-02-18T11:26:02;1.95;;;0.70;;
22007;SDS011;11168;56.976;24.168;2023-02-18T11:28:44;1.77;;;1.20;;
22007;SDS011;11168;56.976;24.168;2023-02-18T11:31:19;1.67;;;1.10;;
22007;SDS011;11168;56.976;24.168;2023-02-18T11:38:48;13.57;;;4.35;;
22007;SDS011;11168;56.976;24.168;2023-02-18T11:43:59;2.83;;;1.10;;
22007;SDS011;11168;56.976;24.168;2023-02-18T11:46:28;1.67;;;1.10;;
22007;SDS011;11168;56.976;24.168;2023-02-18T11:48:55;6.18;;;2.22;;
22007;SDS011;11168;56.976;24.168;2023-02-18T11:51:36;4.13;;;2.42;;
22007;SDS011;11168;56.976;24.168;2023-02-18T11:54:22;5.32;;;1.63;;
22007;SDS011;11168;56.976;24.168;2023-02-18T11:59:25;2.50;;;1.38;;
22007;SDS011;11168;56.976;24.168;2023-02-18T12:02:00;2.00;;;1.33;;
22007;SDS011;11168;56.976;24.168;2023-02-18T12:09:38;4.05;;;2.58;;
22007;SDS011;11168;56.976;24.168;2023-02-18T12:12:23;2.33;;;1.70;;
22007;SDS011;11168;56.976;24.168;2023-02-18T12:14:58;1.85;;;1.15;;
22007;SDS011;11168;56.976;24.168;2023-02-18T12:28:34;4.60;;;2.72;;
22007;SDS011;11168;56.976;24.168;2023-02-18T12:34:29;3.38;;;2.03;;
22007;SDS011;11168;56.976;24.168;2023-02-18T12:39:53;2.70;;;2.03;;
22007;SDS011;11168;56.976;24.168;2023-02-18T12:51:24;5.32;;;1.70;;
22007;SDS011;11168;56.976;24.168;2023-02-18T13:04:46;6.85;;;3.95;;
22007;SDS011;11168;56.976;24.168;2023-02-18T13:07:39;5.47;;;3.15;;
22007;SDS011;11168;56.976;24.168;2023-02-18T13:13:18;4.45;;;1.70;;
22007;SDS011;11168;56.976;24.168;2023-02-18T13:15:57;3.03;;;1.50;;
22007;SDS011;11168;56.976;24.168;2023-02-18T13:18:39;4.90;;;2.55;;
22007;SDS011;11168;56.976;24.168;2023-02-18T13:21:11;6.32;;;2.88;;
22007;SDS011;11168;56.976;24.168;2023-02-18T13:23:51;4.20;;;2.00;;
22007;SDS011;11168;56.976;24.168;2023-02-18T13:26:24;2.78;;;1.30;;
22007;SDS011;11168;56.976;24.168;2023-02-18T13:28:57;3.33;;;1.60;;
22007;SDS011;11168;56.976;24.168;2023-02-18T13:31:59;2.10;;;1.13;;
22007;SDS011;11168;56.976;24.168;2023-02-18T13:37:15;1.63;;;1.13;;
22007;SDS011;11168;56.976;24.168;2023-02-18T13:39:50;6.93;;;3.85;;
22007;SDS011;11168;56.976;24.168;2023-02-18T13:42:23;1.42;;;0.90;;
22007;SDS011;11168;56.976;24.168;2023-02-18T13:55:41;1.52;;;0.73;;
22007;SDS011;11168;56.976;24.168;2023-02-18T13:58:36;3.53;;;0.98;;
22007;SDS011;11168;56.976;24.168;2023-02-18T14:09:51;3.78;;;1.85;;
22007;SDS011;11168;56.976;24.168;2023-02-18T14:17:47;3.05;;;1.40;;
22007;SDS011;11168;56.976;24.168;2023-02-18T14:22:49;4.43;;;1.58;;
22007;SDS011;11168;56.976;24.168;2023-02-18T14:27:52;5.35;;;1.80;;
22007;SDS011;11168;56.976;24.168;2023-02-18T14:30:28;3.45;;;1.38;;
22007;SDS011;11168;56.976;24.168;2023-02-18T14:33:05;4.05;;;1.90;;
22007;SDS011;11168;56.976;24.168;2023-02-18T14:35:52;6.78;;;1.75;;
22007;SDS011;11168;56.976;24.168;2023-02-18T14:49:38;2.80;;;1.38;;
22007;SDS011;11168;56.976;24.168;2023-02-18T14:52:19;3.90;;;1.10;;
22007;SDS011;11168;56.976;24.168;2023-02-18T14:54:48;2.63;;;0.98;;
22007;SDS011;11168;56.976;24.168;2023-02-18T14:57:16;2.75;;;1.70;;
22007;SDS011;11168;56.976;24.168;2023-02-18T14:59:47;4.90;;;1.92;;
22007;SDS011;11168;56.976;24.168;2023-02-18T15:02:18;4.53;;;2.65;;
22007;SDS011;11168;56.976;24.168;2023-02-18T15:04:47;6.97;;;2.35;;
22007;SDS011;11168;56.976;24.168;2023-02-18T15:07:19;4.20;;;2.05;;
22007;SDS011;11168;56.976;24.168;2023-02-18T15:09:49;4.60;;;1.50;;
22007;SDS011;11168;56.976;24.168;2023-02-18T15:12:19;3.97;;;1.35;;
22007;SDS011;11168;56.976;24.168;2023-02-18T15:14:51;4.97;;;1.10;;
22007;SDS011;11168;56.976;24.168;2023-02-18T15:17:21;3.97;;;1.10;;
22007;SDS011;11168;56.976;24.168;2023-02-18T15:19:53;5.25;;;1.40;;
22007;SDS011;11168;56.976;24.168;2023-02-18T15:22:23;1.88;;;1.20;;
22007;SDS011;11168;56.976;24.168;2023-02-18T15:24:51;4.90;;;1.17;;
22007;SDS011;11168;56.976;24.168;2023-02-18T15:27:21;3.45;;;1.00;;
22007;SDS011;11168;56.976;24.168;2023-02-18T15:29:50;3.13;;;1.00;;
22007;SDS011;11168;56.976;24.168;2023-02-18T15:32:25;4.00;;;0.90;;
22007;SDS011;11168;56.976;24.168;2023-02-18T15:34:58;2.92;;;0.88;;
22007;SDS011;11168;56.976;24.168;2023-02-18T15:37:27;4.32;;;0.70;;
22007;SDS011;11168;56.976;24.168;2023-02-18T15:39:55;3.40;;;0.90;;
22007;SDS011;11168;56.976;24.168;2023-02-18T15:45:03;4.40;;;0.75;;
22007;SDS011;11168;56.976;24.168;2023-02-18T15:48:03;1.13;;;0.60;;
22007;SDS011;11168;56.976;24.168;2023-02-18T15:50:35;2.67;;;0.73;;
22007;SDS011;11168;56.976;24.168;2023-02-18T15:53:14;1.25;;;0.70;;
22007;SDS011;11168;56.976;24.168;2023-02-18T15:55:47;3.30;;;1.00;;
22007;SDS011;11168;56.976;24.168;2023-02-18T15:58:17;4.93;;;1.40;;
22007;SDS011;11168;56.976;24.168;2023-02-18T16:01:04;3.78;;;1.05;;
22007;SDS011;11168;56.976;24.168;2023-02-18T16:03:44;4.28;;;1.00;;
22007;SDS011;11168;56.976;24.168;2023-02-18T16:08:45;2.95;;;1.10;;
22007;SDS011;11168;56.976;24.168;2023-02-18T16:11:30;36.05;;;18.95;;
22007;SDS011;11168;56.976;24.168;2023-02-18T16:14:00;1.60;;;1.08;;
22007;SDS011;11168;56.976;24.168;2023-02-18T16:16:32;1.40;;;0.80;;
22007;SDS011;11168;56.976;24.168;2023-02-18T16:19:01;1.50;;;0.70;;
22007;SDS011;11168;56.976;24.168;2023-02-18T16:21:35;2.22;;;0.80;;
22007;SDS011;11168;56.976;24.168;2023-02-18T16:24:25;2.03;;;1.17;;
22007;SDS011;11168;56.976;24.168;2023-02-18T16:26:57;2.40;;;0.60;;
22007;SDS011;11168;56.976;24.168;2023-02-18T16:29:35;0.95;;;0.60;;
22007;SDS011;11168;56.976;24.168;2023-02-18T16:32:06;1.52;;;0.70;;
22007;SDS011;11168;56.976;24.168;2023-02-18T16:34:33;1.58;;;1.02;;
22007;SDS011;11168;56.976;24.168;2023-02-18T16:37:01;1.50;;;0.60;;
22007;SDS011;11168;56.976;24.168;2023-02-18T16:39:47;3.58;;;0.70;;
22007;SDS011;11168;56.976;24.168;2023-02-18T16:42:17;1.60;;;0.93;;
22007;SDS011;11168;56.976;24.168;2023-02-18T16:44:44;2.63;;;0.80;;
22007;SDS011;11168;56.976;24.168;2023-02-18T16:47:14;0.87;;;0.70;;
22007;SDS011;11168;56.976;24.168;2023-02-18T16:49:46;2.28;;;0.70;;
22007;SDS011;11168;56.976;24.168;2023-02-18T16:52:15;1.83;;;0.80;;
22007;SDS011;11168;56.976;24.168;2023-02-18T16:54:43;2.20;;;1.15;;
22007;SDS011;11168;56.976;24.168;2023-02-18T16:57:13;6.72;;;1.38;;
22007;SDS011;11168;56.976;24.168;2023-02-18T16:59:40;3.97;;;1.02;;
22007;SDS011;11168;56.976;24.168;2023-02-18T17:02:12;6.22;;;0.73;;
22007;SDS011;11168;56.976;24.168;2023-02-18T17:04:45;1.08;;;0.50;;
22007;SDS011;11168;56.976;24.168;2023-02-18T17:07:12;1.42;;;0.60;;
22007;SDS011;11168;56.976;24.168;2023-02-18T17:09:39;8.32;;;4.75;;
22007;SDS011;11168;56.976;24.168;2023-02-18T17:12:06;2.55;;;1.08;;
22007;SDS011;11168;56.976;24.168;2023-02-18T17:14:34;2.47;;;0.70;;
22007;SDS011;11168;56.976;24.168;2023-02-18T17:17:04;1.30;;;0.70;;
22007;SDS011;11168;56.976;24.168;2023-02-18T17:19:36;1.60;;;0.60;;
22007;SDS011;11168;56.976;24.168;2023-02-18T17:22:03;1.38;;;0.47;;
22007;SDS011;11168;56.976;24.168;2023-02-18T17:24:30;1.83;;;0.52;;
22007;SDS011;11168;56.976;24.168;2023-02-18T17:26:57;0.98;;;0.50;;
22007;SDS011;11168;56.976;24.168;2023-02-18T17:29:23;2.05;;;0.45;;
22007;SDS011;11168;56.976;24.168;2023-02-18T17:31:51;1.23;;;0.57;;
22007;SDS011;11168;56.976;24.168;2023-02-18T17:34:25;1.45;;;0.45;;
22007;SDS011;11168;56.976;24.168;2023-02-18T17:36:56;1.52;;;0.60;;
22007;SDS011;11168;56.976;24.168;2023-02-18T17:39:23;1.88;;;0.60;;
22007;SDS011;11168;56.976;24.168;2023-02-18T17:41:50;1.55;;;0.70;;
22007;SDS011;11168;56.976;24.168;2023-02-18T17:44:18;1.23;;;0.50;;
22007;SDS011;11168;56.976;24.168;2023-02-18T17:46:47;2.13;;;0.60;;
22007;SDS011;11168;56.976;24.168;2023-02-18T17:49:15;2.58;;;0.80;;
22007;SDS011;11168;56.976;24.168;2023-02-18T17:51:42;2.63;;;0.80;;
22007;SDS011;11168;56.976;24.168;2023-02-18T17:54:14;2.05;;;0.80;;
22007;SDS011;11168;56.976;24.168;2023-02-18T17:56:42;3.05;;;0.90;;